Time;durP1;ratioP1;P1;durP2;ratioP2;P2;SDS_P1;SDS_P2;PMS_P1;PMS_P2;Temp;Humidity;BMP_temperature;BMP_pressure;BME280_temperature;BME280_humidity;BME280_pressure;Samples;Min_cycle;Max_cycle;Signal;HPM_P1;HPM_P2
2022/05/11 00:01:40;;;;;;;8.90;2.08;;;;;;;14.88;100.00;101038.89;1886995;75;21041;-72
2022/05/11 00:04:09;;;;;;;8.55;2.40;;;;;;;14.86;100.00;101040.63;1872570;75;21072;-71
2022/05/11 00:06:38;;;;;;;7.10;2.30;;;;;;;14.87;100.00;101037.16;1872562;75;21037;-72
2022/05/11 00:09:08;;;;;;;8.60;2.58;;;;;;;14.90;100.00;101032.38;1872529;75;21103;-71
2022/05/11 00:11:36;;;;;;;7.05;2.10;;;;;;;14.88;100.00;101039.31;1879921;75;21427;-71
2022/05/11 00:14:05;;;;;;;9.10;2.58;;;;;;;14.87;100.00;101032.44;1876968;75;21088;-71
2022/05/11 00:16:34;;;;;;;8.13;2.25;;;;;;;14.92;100.00;101022.47;1891850;75;21584;-71
2022/05/11 00:19:02;;;;;;;10.30;2.87;;;;;;;15.07;100.00;101023.16;1883228;75;21030;-71
2022/05/11 00:21:30;;;;;;;10.95;2.77;;;;;;;15.12;100.00;101020.53;1914348;75;21100;-71
2022/05/11 00:23:57;;;;;;;6.53;2.30;;;;;;;15.12;100.00;101015.36;1887575;75;21097;-72
2022/05/11 00:26:25;;;;;;;12.58;2.60;;;;;;;14.98;100.00;101016.37;1887192;75;21155;-71
2022/05/11 00:28:53;;;;;;;9.28;2.67;;;;;;;14.93;100.00;101013.83;1887272;75;21096;-71
2022/05/11 00:31:20;;;;;;;8.00;3.17;;;;;;;14.91;100.00;101018.14;1887193;75;21565;-72
2022/05/11 00:33:47;;;;;;;11.18;3.27;;;;;;;14.83;100.00;101014.77;1876044;74;21127;-71
2022/05/11 00:36:15;;;;;;;13.65;4.03;;;;;;;14.80;100.00;101013.08;1896419;75;21054;-71
2022/05/11 00:38:44;;;;;;;13.40;3.30;;;;;;;14.64;100.00;101014.06;1887158;74;21068;-72
2022/05/11 00:41:11;;;;;;;11.75;3.92;;;;;;;14.61;100.00;101012.37;1887263;74;21538;-71
2022/05/11 00:43:42;;;;;;;14.43;4.80;;;;;;;14.56;100.00;101003.34;1886687;74;21088;-72
2022/05/11 00:46:12;;;;;;;12.55;3.95;;;;;;;14.50;100.00;101003.84;1887078;75;21053;-71
2022/05/11 00:51:28;;;;;;;10.82;3.50;;;;;;;14.48;100.00;101002.98;1887078;75;21176;-71
2022/05/11 00:53:56;;;;;;;9.90;3.35;;;;;;;14.48;100.00;101001.69;1889321;74;21489;-71
2022/05/11 00:56:25;;;;;;;11.05;2.75;;;;;;;14.45;100.00;101005.16;1886988;75;21493;-71
2022/05/11 00:58:56;;;;;;;9.85;2.87;;;;;;;14.37;100.00;101001.36;1887028;75;21114;-71
2022/05/11 01:01:24;;;;;;;4.37;2.27;;;;;;;14.44;100.00;100998.28;1887225;75;21123;-72
2022/05/11 01:03:58;;;;;;;10.32;2.72;;;;;;;14.40;100.00;100994.88;1893952;74;21226;-72
2022/05/11 01:06:25;;;;;;;10.68;3.05;;;;;;;14.38;100.00;100994.44;1901890;75;21073;-72
2022/05/11 01:08:53;;;;;;;16.30;3.60;;;;;;;14.28;100.00;100995.81;1887377;75;21212;-72
2022/05/11 01:11:21;;;;;;;8.25;2.55;;;;;;;14.31;100.00;100985.88;1891098;75;21112;-72
2022/05/11 01:13:48;;;;;;;8.53;3.37;;;;;;;14.31;100.00;100992.34;1880874;75;21132;-72
2022/05/11 01:16:16;;;;;;;6.22;2.52;;;;;;;14.27;100.00;100984.20;1903064;75;21430;-72
2022/05/11 01:18:45;;;;;;;7.45;2.52;;;;;;;14.24;100.00;100982.92;1892400;73;21652;-72
2022/05/11 01:21:12;;;;;;;5.20;2.15;;;;;;;14.23;100.00;100983.38;1903836;74;21041;-72
2022/05/11 01:23:48;;;;;;;7.28;2.60;;;;;;;14.15;100.00;100989.87;1913803;75;21493;-72
2022/05/11 01:26:18;;;;;;;7.97;1.75;;;;;;;14.18;100.00;100989.02;1887145;75;21044;-72
2022/05/11 01:28:49;;;;;;;10.55;2.40;;;;;;;14.14;100.00;100977.83;1887227;75;21569;-72
2022/05/11 01:31:17;;;;;;;12.98;2.90;;;;;;;14.24;100.00;100980.34;1887353;75;21101;-72
2022/05/11 01:33:47;;;;;;;11.00;2.17;;;;;;;14.25;100.00;100979.48;1887575;74;21081;-72
2022/05/11 01:36:30;;;;;;;11.00;2.62;;;;;;;14.20;100.00;100979.52;1908596;73;21009;-72
2022/05/11 01:39:07;;;;;;;8.43;1.98;;;;;;;14.11;100.00;100980.43;1887470;75;21076;-72
2022/05/11 01:41:40;;;;;;;14.60;2.55;;;;;;;14.12;100.00;100974.84;1887129;75;21446;-72
2022/05/11 01:44:11;;;;;;;9.75;2.40;;;;;;;14.02;100.00;100977.92;1911123;74;21126;-72
2022/05/11 01:46:40;;;;;;;10.23;2.35;;;;;;;14.00;100.00;100974.05;1925597;73;21025;-72
2022/05/11 01:49:08;;;;;;;5.50;1.90;;;;;;;13.95;100.00;100969.78;1898360;75;21110;-72
2022/05/11 01:51:35;;;;;;;5.70;2.30;;;;;;;13.98;100.00;100963.31;1907544;74;21013;-72
2022/05/11 01:54:02;;;;;;;6.12;2.45;;;;;;;14.01;100.00;100964.13;1887188;75;21160;-72
2022/05/11 01:56:30;;;;;;;7.12;1.80;;;;;;;13.99;100.00;100959.43;1887207;75;21006;-72
2022/05/11 01:58:57;;;;;;;6.37;1.57;;;;;;;13.94;100.00;100959.91;1890023;74;21057;-72
2022/05/11 02:01:27;;;;;;;8.45;1.98;;;;;;;13.92;100.00;100960.33;1905794;75;21099;-72
2022/05/11 02:03:54;;;;;;;7.25;2.15;;;;;;;13.92;100.00;100959.91;1886684;74;21044;-72
2022/05/11 02:09:09;;;;;;;11.75;2.17;;;;;;;13.84;100.00;100962.98;1910808;75;21131;-72
2022/05/11 02:11:37;;;;;;;8.18;1.98;;;;;;;13.79;100.00;100960.84;1883150;75;21032;-72
2022/05/11 02:14:04;;;;;;;8.73;1.62;;;;;;;13.92;100.00;100962.49;1891060;75;21151;-72
2022/05/11 02:16:32;;;;;;;5.60;2.05;;;;;;;13.92;100.00;100960.33;1906568;73;21119;-72
2022/05/11 02:19:00;;;;;;;9.93;1.87;;;;;;;13.98;100.00;100959.02;1888789;75;21049;-72
2022/05/11 02:21:27;;;;;;;6.12;2.25;;;;;;;13.94;100.00;100961.20;1884889;75;21142;-72
2022/05/11 02:23:54;;;;;;;2.65;1.42;;;;;;;13.97;100.00;100955.98;1872167;75;21502;-72
2022/05/11 02:26:22;;;;;;;9.05;2.70;;;;;;;13.97;100.00;100956.44;1883957;75;21929;-72
2022/05/11 02:28:50;;;;;;;11.55;1.98;;;;;;;13.89;100.00;100957.77;1872472;75;21115;-72
2022/05/11 02:31:18;;;;;;;7.15;1.72;;;;;;;13.97;100.00;100948.23;1871985;75;21041;-72
2022/05/11 02:33:45;;;;;;;7.90;2.35;;;;;;;13.91;100.00;100949.13;1872930;75;21559;-72
2022/05/11 02:36:13;;;;;;;4.55;1.80;;;;;;;13.88;100.00;100950.47;1867259;75;21161;-72
2022/05/11 02:38:42;;;;;;;4.95;2.15;;;;;;;13.80;100.00;100940.17;1872705;75;21115;-72
2022/05/11 02:41:09;;;;;;;8.70;2.12;;;;;;;13.72;100.00;100942.40;1872402;75;21041;-72
2022/05/11 02:43:37;;;;;;;8.83;3.00;;;;;;;13.69;100.00;100939.83;1872482;75;21038;-72
2022/05/11 02:46:05;;;;;;;7.83;2.20;;;;;;;13.71;100.00;100941.53;1872523;75;21175;-72
2022/05/11 02:48:33;;;;;;;6.22;1.95;;;;;;;13.75;100.00;100938.06;1872452;75;21467;-72
2022/05/11 02:51:02;;;;;;;7.45;1.80;;;;;;;13.38;100.00;100941.66;1872595;75;21113;-72
2022/05/11 02:53:32;;;;;;;3.27;1.55;;;;;;;13.63;100.00;100941.56;1872645;75;21038;-72
2022/05/11 02:55:59;;;;;;;6.67;2.45;;;;;;;13.59;100.00;100933.41;1872482;75;21158;-72
2022/05/11 02:58:29;;;;;;;5.37;1.50;;;;;;;13.54;100.00;100929.58;1872242;75;21041;-72
2022/05/11 03:01:01;;;;;;;6.17;1.95;;;;;;;13.51;100.00;100930.02;1880633;75;21025;-72
2022/05/11 03:03:35;;;;;;;7.47;1.92;;;;;;;13.48;100.00;100929.60;1904555;75;21033;-72
2022/05/11 03:06:05;;;;;;;3.83;1.22;;;;;;;13.50;100.00;100929.59;1872760;75;21137;-72
2022/05/11 03:08:33;;;;;;;12.23;2.30;;;;;;;13.52;100.00;100929.17;1872554;75;21041;-72
2022/05/11 03:11:01;;;;;;;8.78;2.15;;;;;;;13.49;100.00;100929.18;1872223;75;21107;-72
2022/05/11 03:13:28;;;;;;;8.18;1.82;;;;;;;13.45;100.00;100927.00;1900028;75;21134;-72
2022/05/11 03:15:55;;;;;;;8.93;2.27;;;;;;;13.44;100.00;100930.88;1872235;75;21159;-72
2022/05/11 03:18:23;;;;;;;5.08;1.57;;;;;;;13.34;100.00;100929.64;1886803;75;20999;-72
2022/05/11 03:20:51;;;;;;;5.53;2.00;;;;;;;12.87;100.00;100927.22;1892532;75;21006;-72
2022/05/11 03:23:18;;;;;;;7.97;2.35;;;;;;;13.10;100.00;100925.01;1872748;75;21121;-73
2022/05/11 03:25:46;;;;;;;6.22;1.77;;;;;;;13.24;100.00;100922.83;1872350;75;21065;-72
2022/05/11 03:28:13;;;;;;;5.65;2.12;;;;;;;13.28;100.00;100921.95;1872564;75;21006;-72
2022/05/11 03:30:40;;;;;;;3.83;1.72;;;;;;;13.28;100.00;100918.08;1872415;75;21085;-72
2022/05/11 03:35:53;;;;;;;6.08;1.67;;;;;;;13.36;100.00;100920.61;1872454;75;21182;-72
2022/05/11 03:38:21;;;;;;;9.30;1.72;;;;;;;13.33;100.00;100924.06;1872260;75;21025;-72
2022/05/11 03:40:48;;;;;;;4.90;1.60;;;;;;;13.39;100.00;100921.89;1872688;75;21025;-72
2022/05/11 03:43:16;;;;;;;7.78;2.05;;;;;;;13.40;100.00;100920.59;1871400;75;21025;-72
2022/05/11 03:45:45;;;;;;;5.05;1.72;;;;;;;13.38;100.00;100922.76;1872490;75;21058;-72
2022/05/11 03:48:16;;;;;;;4.60;1.45;;;;;;;13.39;100.00;100918.85;1883518;75;21147;-72
2022/05/11 03:50:42;;;;;;;5.25;1.92;;;;;;;13.36;100.00;100915.44;1881196;75;21113;-72
2022/05/11 03:53:09;;;;;;;7.10;1.65;;;;;;;13.39;100.00;100913.69;1872526;75;21089;-72
2022/05/11 03:55:37;;;;;;;5.55;1.47;;;;;;;13.38;100.00;100909.41;1872182;75;21159;-72
2022/05/11 03:58:04;;;;;;;6.72;2.08;;;;;;;13.40;100.00;100912.84;1872507;75;21096;-72
2022/05/11 04:00:32;;;;;;;5.25;1.52;;;;;;;13.45;100.00;100909.39;1872287;75;21182;-72
2022/05/11 04:03:00;;;;;;;8.43;1.90;;;;;;;13.47;100.00;100908.92;1872719;75;21105;-72
2022/05/11 04:05:28;;;;;;;6.92;1.45;;;;;;;13.46;100.00;100906.80;1872263;75;21514;-72
2022/05/11 04:07:55;;;;;;;8.25;2.08;;;;;;;13.56;100.00;100908.92;1872681;75;21075;-72
2022/05/11 04:10:23;;;;;;;5.80;1.30;;;;;;;13.57;100.00;100903.31;1872326;75;21194;-72
2022/05/11 04:12:50;;;;;;;5.45;1.37;;;;;;;13.55;100.00;100903.31;1896538;75;21112;-72
2022/05/11 04:15:18;;;;;;;7.75;1.80;;;;;;;13.62;100.00;100906.29;1875232;75;21184;-72
2022/05/11 04:17:45;;;;;;;12.13;2.17;;;;;;;13.71;100.00;100902.80;1890960;75;21051;-72
2022/05/11 04:20:16;;;;;;;5.00;1.42;;;;;;;13.70;100.00;100902.39;1897265;75;21043;-72
2022/05/11 04:22:43;;;;;;;9.33;1.45;;;;;;;13.74;100.00;100904.50;1889323;75;21167;-72
2022/05/11 04:25:15;;;;;;;5.05;1.98;;;;;;;13.72;100.00;100903.22;1876475;75;21161;-72
2022/05/11 04:27:41;;;;;;;7.03;2.33;;;;;;;13.72;100.00;100901.92;1892140;75;21093;-72
2022/05/11 04:30:09;;;;;;;12.07;1.45;;;;;;;13.72;100.00;100895.92;1894033;75;21170;-72
2022/05/11 04:32:37;;;;;;;6.10;1.50;;;;;;;13.78;100.00;100891.56;1872576;75;21025;-72
2022/05/11 04:35:04;;;;;;;6.37;1.67;;;;;;;13.77;100.00;100892.86;1880537;75;21162;-72
2022/05/11 04:37:32;;;;;;;9.00;2.62;;;;;;;13.83;100.00;100893.26;1885830;75;21163;-72
2022/05/11 04:39:59;;;;;;;7.97;1.80;;;;;;;13.82;100.00;100892.81;1872304;75;21521;-72
2022/05/11 04:42:27;;;;;;;5.87;1.40;;;;;;;13.90;100.00;100897.52;1872609;75;21033;-72
2022/05/11 04:44:55;;;;;;;5.40;1.67;;;;;;;13.89;100.00;100899.23;1871790;75;21085;-72
2022/05/11 04:47:23;;;;;;;9.83;1.80;;;;;;;13.98;100.00;100895.73;1872624;75;21470;-72
2022/05/11 04:49:56;;;;;;;5.90;1.85;;;;;;;13.99;100.00;100902.60;1883008;75;21085;-72
2022/05/11 04:52:23;;;;;;;3.17;1.50;;;;;;;14.08;100.00;100898.23;1897525;75;21486;-72
2022/05/11 04:54:51;;;;;;;6.30;1.85;;;;;;;14.27;100.00;100894.61;1882177;75;21128;-72
2022/05/11 04:57:20;;;;;;;6.55;1.65;;;;;;;14.31;100.00;100895.00;1882161;75;21111;-72
2022/05/11 04:59:49;;;;;;;5.10;1.90;;;;;;;14.38;100.00;100897.09;1890237;75;21111;-72
2022/05/11 05:02:20;;;;;;;7.12;1.65;;;;;;;14.55;100.00;100899.52;1881191;75;21254;-72
2022/05/11 05:04:48;;;;;;;5.30;1.80;;;;;;;14.58;100.00;100883.97;1881283;75;21123;-72
2022/05/11 05:07:16;;;;;;;7.45;1.50;;;;;;;14.63;100.00;100884.36;1899203;75;21107;-72
2022/05/11 05:09:43;;;;;;;7.55;1.60;;;;;;;14.64;100.00;100879.17;1889774;75;21100;-72
2022/05/11 05:12:12;;;;;;;8.13;1.98;;;;;;;14.77;100.00;100877.77;1888846;75;21111;-72
2022/05/11 05:14:42;;;;;;;4.70;1.62;;;;;;;14.79;100.00;100874.72;1856060;75;21072;-72
2022/05/11 05:17:12;;;;;;;7.03;1.95;;;;;;;14.79;100.00;100869.55;1894214;75;21143;-72
2022/05/11 05:19:43;;;;;;;7.30;2.25;;;;;;;14.80;100.00;100868.23;1872479;75;21018;-72
2022/05/11 05:22:11;;;;;;;5.92;2.20;;;;;;;14.91;100.00;100871.98;1872469;75;21034;-72
2022/05/11 05:24:38;;;;;;;5.25;1.35;;;;;;;14.97;100.00;100872.34;1883010;75;21103;-72
2022/05/11 05:27:07;;;;;;;8.35;2.27;;;;;;;15.10;100.00;100874.34;1887306;75;21226;-72
2022/05/11 05:32:20;;;;;;;5.40;1.75;;;;;;;15.35;100.00;100875.30;1887318;75;21073;-72
2022/05/11 05:34:48;;;;;;;7.30;1.50;;;;;;;15.41;100.00;100871.77;1891693;75;21636;-72
2022/05/11 05:37:17;;;;;;;4.33;1.62;;;;;;;15.51;100.00;100875.08;1904604;74;21098;-72
2022/05/11 05:39:47;;;;;;;6.87;1.45;;;;;;;15.58;100.00;100871.53;1886973;75;21041;-72
2022/05/11 05:42:20;;;;;;;3.50;1.47;;;;;;;15.69;100.00;100866.17;1887197;74;21092;-72
2022/05/11 05:44:47;;;;;;;5.53;1.57;;;;;;;15.60;100.00;100868.48;1887343;75;21244;-72
2022/05/11 05:47:16;;;;;;;4.12;1.45;;;;;;;15.59;100.00;100861.58;1887250;75;21076;-72
2022/05/11 05:49:44;;;;;;;3.85;1.55;;;;;;;15.67;100.00;100867.48;1889418;74;21041;-72
2022/05/11 05:52:17;;;;;;;6.53;1.55;;;;;;;15.66;100.00;100864.92;1864284;76;21049;-72
2022/05/11 05:54:48;;;;;;;5.80;1.42;;;;;;;15.90;100.00;100866.70;1863088;76;21081;-72
2022/05/11 05:57:16;;;;;;;8.53;1.40;;;;;;;15.80;100.00;100870.75;1851187;77;21108;-72
2022/05/11 05:59:45;;;;;;;2.92;1.20;;;;;;;15.86;100.00;100863.32;1862948;76;21415;-72
2022/05/11 06:02:16;;;;;;;3.70;1.57;;;;;;;15.94;100.00;100864.05;1845000;76;21090;-72
2022/05/11 06:04:45;;;;;;;3.62;1.40;;;;;;;15.92;100.00;100861.07;1844972;76;21562;-72
2022/05/11 06:07:14;;;;;;;2.90;1.62;;;;;;;16.10;100.00;100854.33;1844961;76;22521;-72
2022/05/11 06:09:41;;;;;;;6.95;1.50;;;;;;;16.10;100.00;100849.56;1844402;76;21135;-72
2022/05/11 06:12:11;;;;;;;2.90;1.35;;;;;;;16.30;100.00;100850.95;1851408;76;21439;-74
2022/05/11 06:14:39;;;;;;;6.70;1.92;;;;;;;16.35;100.00;100850.41;1844351;76;21159;-73
2022/05/11 06:17:23;;;;;;;5.90;2.52;;;;;;;16.09;100.00;100856.94;1839692;77;21069;-73
2022/05/11 06:19:52;;;;;;;2.47;1.25;;;;;;;16.12;100.00;100855.13;1852852;76;21631;-73
2022/05/11 06:22:19;;;;;;;5.00;1.77;;;;;;;16.17;100.00;100852.47;1833550;77;21483;-73
2022/05/11 06:24:47;;;;;;;8.18;2.37;;;;;;;16.41;100.00;100861.11;1845108;76;21163;-73
2022/05/11 06:27:17;;;;;;;5.20;2.60;;;;;;;16.63;100.00;100860.25;1844886;76;21082;-73
2022/05/11 06:29:54;;;;;;;9.38;2.20;;;;;;;16.58;100.00;100862.96;1863961;76;21525;-73
2022/05/11 06:32:26;;;;;;;5.45;2.15;;;;;;;16.31;100.00;100860.00;1849926;76;21043;-73
2022/05/11 06:34:52;;;;;;;7.87;1.87;;;;;;;16.29;100.00;100855.73;1862107;76;21520;-74
2022/05/11 06:37:20;;;;;;;6.78;1.77;;;;;;;16.33;100.00;100850.90;1857922;76;21084;-73
2022/05/11 06:39:48;;;;;;;7.67;1.90;;;;;;;16.63;100.00;100857.23;1872143;76;21569;-73
2022/05/11 06:42:16;;;;;;;12.07;2.67;;;;;;;16.58;100.00;100860.80;1885447;73;21581;-74
2022/05/11 06:44:43;;;;;;;7.47;1.90;;;;;;;16.64;100.00;100860.66;1876945;75;21131;-73
2022/05/11 06:47:11;;;;;;;6.70;2.45;;;;;;;16.60;100.00;100861.61;1876721;75;22394;-73
2022/05/11 06:49:38;;;;;;;11.75;2.27;;;;;;;16.70;100.00;100860.98;1876801;75;21096;-73
2022/05/11 06:52:06;;;;;;;6.37;2.05;;;;;;;16.68;100.00;100860.17;1868663;75;21085;-73
2022/05/11 07:00:06;;;;;;;11.35;3.35;;;;;;;16.73;100.00;100859.20;1876955;75;21177;-74
2022/05/11 07:02:34;;;;;;;9.45;2.10;;;;;;;16.68;100.00;100857.15;1877407;75;21505;-74
2022/05/11 07:05:02;;;;;;;11.35;2.92;;;;;;;16.76;100.00;100868.23;1886672;75;21139;-74
2022/05/11 07:07:30;;;;;;;5.42;2.58;;;;;;;16.69;100.00;100864.04;1904085;75;21773;-74
2022/05/11 07:09:57;;;;;;;11.33;2.65;;;;;;;17.04;100.00;100859.00;1888406;75;22238;-73
2022/05/11 07:12:35;;;;;;;17.10;3.25;;;;;;;17.17;100.00;100864.82;1891755;75;21011;-74
2022/05/11 07:14:57;;;;;;;5.55;3.33;;;;;;;17.06;100.00;100865.49;1892540;75;21510;-74
2022/05/11 07:17:33;;;;;;;3.45;2.02;;;;;;;17.00;100.00;100854.77;1886603;75;21061;-74
2022/05/11 07:20:04;;;;;;;9.88;3.20;;;;;;;16.93;100.00;100860.96;1906511;75;21139;-74
2022/05/11 07:22:31;;;;;;;8.75;2.00;;;;;;;17.13;100.00;100857.98;1909901;75;21037;-74
2022/05/11 07:24:59;;;;;;;9.20;3.15;;;;;;;16.98;100.00;100856.09;1876310;75;21142;-74
2022/05/11 07:27:28;;;;;;;8.25;3.12;;;;;;;17.09;100.00;100860.24;1852699;76;21159;-75
2022/05/11 07:29:56;;;;;;;15.40;2.20;;;;;;;17.19;100.00;100847.45;1868765;75;21010;-75
2022/05/11 07:32:27;;;;;;;9.35;2.72;;;;;;;16.88;100.00;100850.23;1887219;75;21166;-74
2022/05/11 07:34:53;;;;;;;6.22;2.17;;;;;;;17.27;100.00;100858.52;1885602;75;22280;-74
2022/05/11 07:37:21;;;;;;;8.60;2.25;;;;;;;17.40;100.00;100854.34;1879112;75;21608;-74
2022/05/11 07:39:49;;;;;;;11.00;2.65;;;;;;;17.35;100.00;100857.50;1878112;75;21030;-74
2022/05/11 07:42:17;;;;;;;9.15;2.40;;;;;;;17.12;100.00;100863.61;1877914;75;21068;-74
2022/05/11 07:44:44;;;;;;;9.58;3.08;;;;;;;17.47;100.00;100867.59;1877857;75;21583;-74
2022/05/11 07:47:12;;;;;;;2.92;1.67;;;;;;;17.53;100.00;100872.67;1878105;75;21017;-74
2022/05/11 07:49:40;;;;;;;4.55;1.98;;;;;;;17.57;100.00;100875.20;1877657;75;21099;-75
2022/05/11 07:52:08;;;;;;;4.47;2.25;;;;;;;17.45;100.00;100871.98;1878008;75;21119;-75
2022/05/11 07:54:36;;;;;;;5.45;2.12;;;;;;;17.59;100.00;100861.71;1877796;75;21182;-75
2022/05/11 07:59:59;;;;;;;3.30;1.67;;;;;;;17.62;100.00;100869.00;1877857;75;21194;-74
2022/05/11 08:02:29;;;;;;;8.35;2.20;;;;;;;17.60;100.00;100863.41;1900101;75;21073;-75
2022/05/11 08:04:59;;;;;;;6.40;1.80;;;;;;;17.83;100.00;100869.38;1897982;75;22254;-75
2022/05/11 08:07:30;;;;;;;13.48;2.35;;;;;;;17.64;100.00;100868.94;1897940;75;21470;-76
2022/05/11 08:10:01;;;;;;;7.95;2.33;;;;;;;17.61;100.00;100872.47;1900391;75;21403;-77
2022/05/11 08:12:28;;;;;;;6.42;2.35;;;;;;;17.57;100.00;100869.54;1867273;75;21092;-75
2022/05/11 08:14:56;;;;;;;6.00;2.20;;;;;;;17.95;100.00;100872.09;1902895;75;21128;-76
2022/05/11 08:17:26;;;;;;;6.78;1.60;;;;;;;18.28;100.00;100876.08;1888244;75;21100;-75
2022/05/11 08:19:54;;;;;;;4.40;1.90;;;;;;;18.33;100.00;100876.39;1886836;75;21045;-75
2022/05/11 08:22:21;;;;;;;9.13;1.90;;;;;;;18.37;100.00;100874.12;1876773;76;21043;-76
2022/05/11 08:24:51;;;;;;;8.48;2.02;;;;;;;17.98;100.00;100872.46;1896187;75;21061;-76
2022/05/11 08:27:24;;;;;;;6.47;2.33;;;;;;;17.98;100.00;100872.46;1852907;76;21064;-76
2022/05/11 08:35:21;;;;;;;6.12;1.65;;;;;;;17.54;100.00;100896.88;1884253;75;21402;-77
2022/05/11 08:37:49;;;;;;;3.50;2.05;;;;;;;17.45;100.00;100903.59;1910628;73;21096;-76
2022/05/11 08:40:19;;;;;;;9.20;1.90;;;;;;;17.34;100.00;100903.84;1916656;75;21096;-76
2022/05/11 08:42:46;;;;;;;6.08;1.80;;;;;;;17.49;100.00;100902.63;1891476;75;21040;-77
2022/05/11 08:45:14;;;;;;;7.35;2.27;;;;;;;17.55;100.00;100894.71;1883799;75;21162;-76
2022/05/11 08:47:48;;;;;;;4.10;1.70;;;;;;;17.77;100.00;100900.69;1875082;75;21045;-76
2022/05/11 08:50:46;;;;;;;8.05;1.98;;;;;;;17.86;100.00;100896.59;1898851;75;21584;-80
2022/05/11 08:58:57;;;;;;;3.40;1.52;;;;;;;18.00;100.00;100894.95;1717989;81;21084;-81
2022/05/11 09:01:33;;;;;;;6.97;2.47;;;;;;;17.94;100.00;100897.69;1737141;81;21127;-80
2022/05/11 09:04:07;;;;;;;8.48;2.95;;;;;;;18.47;100.00;100891.63;1769020;78;21162;-81
2022/05/11 09:06:37;;;;;;;4.97;1.80;;;;;;;18.55;100.00;100896.18;1751130;81;21587;-76
2022/05/11 09:09:05;;;;;;;5.12;1.87;;;;;;;17.77;100.00;100899.39;1860037;76;21069;-76
2022/05/11 09:11:36;;;;;;;4.30;1.87;;;;;;;17.91;100.00;100888.66;1882455;75;21027;-77
2022/05/11 09:14:04;;;;;;;4.15;2.45;;;;;;;18.14;100.00;100879.47;1894184;74;21075;-77
2022/05/11 09:16:40;;;;;;;4.58;1.60;;;;;;;18.37;100.00;100874.12;1859175;77;21025;-77
2022/05/11 09:19:13;;;;;;;7.78;2.35;;;;;;;18.54;100.00;100877.10;1829683;77;21067;-77
2022/05/11 09:21:42;;;;;;;5.28;1.62;;;;;;;18.89;100.00;100873.09;1887384;76;21138;-77
2022/05/11 09:24:21;;;;;;;3.33;1.80;;;;;;;18.52;100.00;100873.70;1847718;77;21098;-77
2022/05/11 09:27:10;;;;;;;4.90;1.87;;;;;;;17.69;100.00;100863.21;1879509;76;21102;-77
2022/05/11 09:29:40;;;;;;;6.05;1.67;;;;;;;17.33;100.00;100867.08;1908216;74;21104;-77
2022/05/11 09:32:29;;;;;;;4.10;1.40;;;;;;;17.99;100.00;100867.22;1835434;76;21475;-77
2022/05/11 09:34:59;;;;;;;7.83;1.75;;;;;;;18.79;100.00;100868.59;1861131;75;21225;-77
2022/05/11 09:37:37;;;;;;;6.00;2.40;;;;;;;18.79;100.00;100868.59;1885260;76;21049;-78
2022/05/11 09:40:21;;;;;;;7.67;2.30;;;;;;;19.39;100.00;100879.91;1847552;76;21045;-77
2022/05/11 09:42:55;;;;;;;3.10;1.62;;;;;;;19.15;100.00;100875.86;1873416;76;21148;-78
2022/05/11 09:45:47;;;;;;;3.70;1.65;;;;;;;19.15;100.00;100875.86;1881010;76;21078;-77
2022/05/11 09:48:20;;;;;;;4.70;1.85;;;;;;;18.45;100.00;100866.95;1864315;76;21137;-78
2022/05/11 09:50:52;;;;;;;5.10;2.00;;;;;;;18.66;100.00;100871.16;1886730;76;21198;-77
2022/05/11 09:53:33;;;;;;;6.45;2.30;;;;;;;18.86;100.00;100867.97;1870811;75;21034;-75
2022/05/11 09:56:18;;;;;;;8.90;2.42;;;;;;;19.01;100.00;100867.98;1886594;74;21571;-75
2022/05/11 09:58:47;;;;;;;7.87;2.50;;;;;;;19.15;100.00;100856.33;1870254;74;21053;-75
2022/05/11 10:01:17;;;;;;;6.95;2.12;;;;;;;19.13;100.00;100871.16;1869229;77;21179;-75
2022/05/11 10:03:53;;;;;;;7.15;2.80;;;;;;;19.56;100.00;100863.28;1854579;76;21048;-76
2022/05/11 10:06:22;;;;;;;7.30;2.27;;;;;;;19.87;100.00;100860.59;1872377;75;21087;-75
2022/05/11 10:08:51;;;;;;;2.75;1.57;;;;;;;19.72;100.00;100857.57;1895583;74;21108;-76
2022/05/11 10:11:24;;;;;;;4.67;2.42;;;;;;;19.64;100.00;100872.61;1854668;76;21026;-75
2022/05/11 10:13:53;;;;;;;;;;;;;;;19.91;100.00;100872.61;1855867;76;21532;-76
2022/05/11 10:22:27;;;;;;;7.30;2.60;;;;;;;19.94;100.00;100871.22;1907561;73;21062;-75
2022/05/11 10:25:03;;;;;;;9.75;2.17;;;;;;;19.70;100.00;100877.64;1879610;75;21139;-76
2022/05/11 10:27:34;;;;;;;5.78;2.75;;;;;;;20.02;100.00;100875.75;1861454;76;21121;-76
2022/05/11 10:30:08;;;;;;;7.50;2.70;;;;;;;19.99;100.00;100871.94;1854173;74;21041;-74
2022/05/11 10:32:55;;;;;;;3.22;1.87;;;;;;;20.53;100.00;100866.61;1872785;74;21149;-74
2022/05/11 10:35:33;;;;;;;11.70;2.22;;;;;;;21.16;100.00;100874.77;1828822;78;21159;-74
2022/05/11 10:38:15;;;;;;;5.12;2.00;;;;;;;21.38;100.00;100870.41;1850904;75;21636;-74
2022/05/11 10:40:58;;;;;;;8.25;2.08;;;;;;;20.36;100.00;100871.13;1882994;74;21024;-75
2022/05/11 10:43:47;;;;;;;6.55;2.20;;;;;;;20.07;100.00;100873.83;1865340;75;21021;-75
2022/05/11 10:46:23;;;;;;;10.30;2.20;;;;;;;19.82;100.00;100876.38;1854829;75;21169;-75
2022/05/11 10:48:59;;;;;;;10.45;2.50;;;;;;;20.16;100.00;100870.50;1863905;76;21163;-75
2022/05/11 10:51:48;;;;;;;7.62;2.30;;;;;;;20.35;100.00;100866.34;1907130;74;21591;-74
2022/05/11 10:54:30;;;;;;;7.62;2.22;;;;;;;20.36;100.00;100860.69;1865127;74;21256;-75
2022/05/11 10:57:10;;;;;;;7.20;1.87;;;;;;;20.16;100.00;100870.50;1902256;74;21505;-75
2022/05/11 10:59:46;;;;;;;12.58;2.85;;;;;;;20.27;100.00;100870.16;1835848;77;21056;-75
2022/05/11 11:02:37;;;;;;;8.53;2.05;;;;;;;19.74;100.00;100870.12;1881930;74;21084;-75
2022/05/11 11:05:13;;;;;;;5.05;1.82;;;;;;;19.88;100.00;100881.83;1861838;76;21061;-74
2022/05/11 11:07:52;;;;;;;7.58;2.08;;;;;;;19.46;100.00;100876.22;1830405;77;21478;-74
2022/05/11 11:10:37;;;;;;;9.35;2.95;;;;;;;19.74;100.00;100867.52;1850373;76;21035;-73
2022/05/11 11:13:23;;;;;;;6.78;2.00;;;;;;;20.10;100.00;100874.17;1880895;74;21078;-74
2022/05/11 11:15:51;;;;;;;7.65;1.92;;;;;;;19.95;100.00;100875.52;1874953;75;21110;-74
2022/05/11 11:18:22;;;;;;;4.25;1.67;;;;;;;20.23;100.00;100866.34;1849784;76;21053;-74
2022/05/11 11:20:50;;;;;;;9.00;2.17;;;;;;;20.36;100.00;100865.43;1851573;76;21138;-73
2022/05/11 11:23:21;;;;;;;4.70;1.80;;;;;;;20.29;100.00;100873.10;1871609;76;21520;-74
2022/05/11 11:29:02;;;;;;;4.20;1.85;;;;;;;20.53;100.00;100873.14;1896038;73;21517;-74
2022/05/11 11:31:31;;;;;;;12.58;2.92;;;;;;;20.31;100.00;100866.06;1877347;75;21576;-74
2022/05/11 11:34:07;;;;;;;6.58;2.15;;;;;;;20.09;100.00;100872.48;1860295;75;21076;-74
2022/05/11 11:36:41;;;;;;;9.53;2.05;;;;;;;20.24;100.00;100876.30;1822885;77;21060;-73
2022/05/11 11:39:11;;;;;;;5.87;2.42;;;;;;;19.62;100.00;100887.46;1818345;78;21072;-74
2022/05/11 11:41:47;;;;;;;5.83;2.30;;;;;;;19.55;100.00;100882.43;1818428;77;21063;-74
2022/05/11 11:44:34;;;;;;;8.58;2.10;;;;;;;19.84;100.00;100891.09;1818542;77;21139;-73
2022/05/11 11:47:02;;;;;;;8.65;2.60;;;;;;;19.58;100.00;100893.20;1815752;77;21050;-74
2022/05/11 11:49:35;;;;;;;10.18;2.00;;;;;;;19.42;100.00;100881.95;1797631;76;21136;-74
2022/05/11 11:52:08;;;;;;;8.08;2.42;;;;;;;19.54;100.00;100888.98;1848216;76;21173;-74
2022/05/11 11:54:42;;;;;;;10.87;3.37;;;;;;;19.85;100.00;100891.48;1837103;76;21112;-74
2022/05/11 11:57:25;;;;;;;11.88;2.37;;;;;;;19.65;100.00;100889.98;1826233;77;21088;-74
2022/05/11 11:59:54;;;;;;;11.25;2.12;;;;;;;19.55;100.00;100883.73;1833448;76;21191;-73
2022/05/11 12:02:39;;;;;;;8.63;2.10;;;;;;;19.39;100.00;100889.03;1838224;77;21033;-74
2022/05/11 12:05:26;;;;;;;7.83;2.83;;;;;;;19.46;100.00;100885.34;1847450;76;21108;-72
2022/05/11 12:17:00;;;;;;;9.40;3.45;;;;;;;18.94;100.00;100867.76;1848883;76;21195;-73
2022/05/11 12:19:28;;;;;;;11.15;3.27;;;;;;;18.97;100.00;100864.20;1841880;76;21162;-72
2022/05/11 12:22:02;;;;;;;16.65;3.67;;;;;;;18.41;100.00;100866.64;1880164;76;21121;-72